Impacts TAF Board
For situational awareness. Not to be used for flight planning purposes.
IDs:

KFLL - Ft Lauderdale-Hollyw, FL, US

Issued at 1747 UTC 12 Dec 2018
Updated at 1935 UTC 12 Dec 2018
Potential Impact None Slight Moderate High
Time1853Z 12/20Z 12/21Z 12/22Z 12/23Z 13/00Z 13/01Z 13/02Z 13/03Z 13/04Z 13/05Z 13/06Z 13/07Z 13/08Z>>
Type OBS PRVL PRVL PRVL PRVL PRVL PRVL PRVL PRVL PRVL PRVL PRVL PRVL PRVL
VIS 10 >6 >6 >6 >6 >6 >6 >6 >6 >6 >6 >6 >6 >6
CIG 50 -- -- -- -- -- 50 50 50 50 50 50 50 50
Cover BKN SCT SCT SCT SCT SCT BKN BKN BKN BKN BKN BKN BKN BKN
FltCat VFR VFR VFR VFR VFR VFR VFR VFR VFR VFR VFR VFR VFR VFR
WX -- -- -- -- -- -- -- -- -- -- -- -- -- --
WDir 90 90 90 90 90 90 100 100 100 100 100 100 100 100
WSpd 12 10 10 10 10 10 8 8 8 8 8 8 8 8
WGst -- -- -- -- -- -- -- -- -- -- -- -- -- --
Raw TAF
KFLL 121747Z 1218/1324 09010KT P6SM SCT050
  FM130100 10008KT P6SM FEW035 BKN050
  FM131400 12012KT P6SM SCT035 BKN050


Raw METAR
KFLL 121853Z 09012KT 10SM BKN050 BKN100 BKN200 23/12 A3018 RMK AO2 SLP218 T02280122
KFLL 121753Z 06009KT 10SM BKN050 BKN100 BKN250 22/12 A3020 RMK AO2 SLP225 T02220122 10228 20100 58020
KFLL 121653Z 08009KT 10SM BKN050 22/13 A3022 RMK AO2 SLP233 T02220133

METAR Board
Radar Display
Forecast Discussion
For situational awareness. Not to be used for flight planning purposes.